sensor_id;sensor_type;location;lat;lon;timestamp;pressure;altitude;pressure_sealevel;temperature;humidity
9672;BME280;4874;43.568;27.824;2022-12-18T00:02:24;99660.03;;;10.76;100.00
9672;BME280;4874;43.568;27.824;2022-12-18T00:04:50;99665.38;;;11.27;100.00
9672;BME280;4874;43.568;27.824;2022-12-18T00:07:17;99694.88;;;10.51;100.00
9672;BME280;4874;43.568;27.824;2022-12-18T00:09:43;99699.06;;;10.33;100.00
9672;BME280;4874;43.568;27.824;2022-12-18T00:12:10;99709.72;;;10.11;100.00
9672;BME280;4874;43.568;27.824;2022-12-18T00:14:41;99702.09;;;10.06;100.00
9672;BME280;4874;43.568;27.824;2022-12-18T00:17:07;99705.50;;;9.86;100.00
9672;BME280;4874;43.568;27.824;2022-12-18T00:19:34;99711.91;;;9.84;100.00
9672;BME280;4874;43.568;27.824;2022-12-18T00:22:00;99711.53;;;9.66;100.00
9672;BME280;4874;43.568;27.824;2022-12-18T00:24:27;99710.09;;;9.73;100.00
9672;BME280;4874;43.568;27.824;2022-12-18T00:26:54;99717.19;;;9.62;100.00
9672;BME280;4874;43.568;27.824;2022-12-18T00:29:20;99710.56;;;9.56;100.00
9672;BME280;4874;43.568;27.824;2022-12-18T00:31:47;99712.63;;;9.52;100.00
9672;BME280;4874;43.568;27.824;2022-12-18T00:34:13;99708.03;;;9.55;100.00
9672;BME280;4874;43.568;27.824;2022-12-18T00:36:40;99707.19;;;9.54;100.00
9672;BME280;4874;43.568;27.824;2022-12-18T00:39:07;99701.16;;;9.52;100.00
9672;BME280;4874;43.568;27.824;2022-12-18T00:41:34;99695.72;;;9.53;100.00
9672;BME280;4874;43.568;27.824;2022-12-18T00:44:19;99694.88;;;9.31;100.00
9672;BME280;4874;43.568;27.824;2022-12-18T00:46:46;99710.44;;;9.35;100.00
9672;BME280;4874;43.568;27.824;2022-12-18T00:49:13;99702.69;;;9.32;100.00
9672;BME280;4874;43.568;27.824;2022-12-18T00:51:40;99702.25;;;9.38;100.00
9672;BME280;4874;43.568;27.824;2022-12-18T00:54:08;99709.94;;;9.41;100.00
9672;BME280;4874;43.568;27.824;2022-12-18T00:56:37;99715.38;;;9.40;100.00
9672;BME280;4874;43.568;27.824;2022-12-18T00:59:13;99713.91;;;9.25;100.00
9672;BME280;4874;43.568;27.824;2022-12-18T01:01:39;99706.69;;;9.27;100.00
9672;BME280;4874;43.568;27.824;2022-12-18T01:04:06;99705.84;;;9.26;100.00
9672;BME280;4874;43.568;27.824;2022-12-18T01:06:33;99710.41;;;9.13;100.00
9672;BME280;4874;43.568;27.824;2022-12-18T01:08:59;99705.34;;;9.21;100.00
9672;BME280;4874;43.568;27.824;2022-12-18T01:11:26;99712.38;;;8.99;100.00
9672;BME280;4874;43.568;27.824;2022-12-18T01:13:53;99722.91;;;9.22;100.00
9672;BME280;4874;43.568;27.824;2022-12-18T01:16:21;99735.19;;;9.12;100.00
9672;BME280;4874;43.568;27.824;2022-12-18T01:18:50;99745.09;;;9.21;100.00
9672;BME280;4874;43.568;27.824;2022-12-18T01:21:17;99747.25;;;9.27;100.00
9672;BME280;4874;43.568;27.824;2022-12-18T01:23:43;99738.19;;;9.08;100.00
9672;BME280;4874;43.568;27.824;2022-12-18T01:26:12;99740.03;;;9.18;100.00
9672;BME280;4874;43.568;27.824;2022-12-18T01:28:39;99723.41;;;9.27;100.00
9672;BME280;4874;43.568;27.824;2022-12-18T01:31:10;99729.78;;;9.25;100.00
9672;BME280;4874;43.568;27.824;2022-12-18T01:33:36;99727.72;;;9.17;100.00
9672;BME280;4874;43.568;27.824;2022-12-18T01:36:03;99726.53;;;9.32;100.00
9672;BME280;4874;43.568;27.824;2022-12-18T01:38:30;99743.38;;;9.09;100.00
9672;BME280;4874;43.568;27.824;2022-12-18T01:40:57;99734.75;;;8.95;100.00
9672;BME280;4874;43.568;27.824;2022-12-18T01:46:09;99731.66;;;9.12;100.00
9672;BME280;4874;43.568;27.824;2022-12-18T01:48:36;99727.53;;;8.97;100.00
9672;BME280;4874;43.568;27.824;2022-12-18T01:51:03;99731.22;;;8.83;100.00
9672;BME280;4874;43.568;27.824;2022-12-18T01:53:30;99741.88;;;8.94;100.00
9672;BME280;4874;43.568;27.824;2022-12-18T01:55:57;99751.75;;;9.03;100.00
9672;BME280;4874;43.568;27.824;2022-12-18T01:58:39;99761.16;;;8.96;100.00
9672;BME280;4874;43.568;27.824;2022-12-18T02:01:08;99759.00;;;9.01;100.00
9672;BME280;4874;43.568;27.824;2022-12-18T02:03:35;99754.69;;;9.11;100.00
9672;BME280;4874;43.568;27.824;2022-12-18T02:06:06;99750.44;;;9.09;100.00
9672;BME280;4874;43.568;27.824;2022-12-18T02:18:55;99765.47;;;8.97;100.00
9672;BME280;4874;43.568;27.824;2022-12-18T02:21:36;99762.16;;;9.17;100.00
9672;BME280;4874;43.568;27.824;2022-12-18T02:24:12;99763.13;;;9.16;100.00
9672;BME280;4874;43.568;27.824;2022-12-18T02:26:43;99763.19;;;8.93;100.00
9672;BME280;4874;43.568;27.824;2022-12-18T02:29:13;99760.09;;;8.75;100.00
9672;BME280;4874;43.568;27.824;2022-12-18T02:31:44;99763.47;;;8.77;100.00
9672;BME280;4874;43.568;27.824;2022-12-18T02:34:11;99756.94;;;8.70;100.00
9672;BME280;4874;43.568;27.824;2022-12-18T02:36:40;99764.75;;;8.72;100.00
9672;BME280;4874;43.568;27.824;2022-12-18T02:39:09;99761.84;;;8.64;100.00
9672;BME280;4874;43.568;27.824;2022-12-18T02:41:37;99767.53;;;8.47;100.00
9672;BME280;4874;43.568;27.824;2022-12-18T02:44:08;99770.25;;;8.45;100.00
9672;BME280;4874;43.568;27.824;2022-12-18T02:46:40;99776.75;;;8.41;100.00
9672;BME280;4874;43.568;27.824;2022-12-18T02:56:51;99796.72;;;8.45;100.00
9672;BME280;4874;43.568;27.824;2022-12-18T03:07:25;99828.50;;;8.32;100.00
9672;BME280;4874;43.568;27.824;2022-12-18T03:09:52;99833.91;;;8.18;100.00
9672;BME280;4874;43.568;27.824;2022-12-18T03:12:32;99834.66;;;8.20;100.00
9672;BME280;4874;43.568;27.824;2022-12-18T03:15:08;99853.59;;;8.02;100.00
9672;BME280;4874;43.568;27.824;2022-12-18T03:17:44;99867.34;;;8.07;100.00
9672;BME280;4874;43.568;27.824;2022-12-18T03:20:13;99862.88;;;8.20;100.00
9672;BME280;4874;43.568;27.824;2022-12-18T03:22:42;99871.78;;;8.06;100.00
9672;BME280;4874;43.568;27.824;2022-12-18T03:25:09;99879.19;;;8.14;100.00
9672;BME280;4874;43.568;27.824;2022-12-18T03:27:37;99875.91;;;7.98;100.00
9672;BME280;4874;43.568;27.824;2022-12-18T03:30:06;99878.03;;;8.05;100.00
9672;BME280;4874;43.568;27.824;2022-12-18T03:32:47;99876.13;;;7.95;100.00
9672;BME280;4874;43.568;27.824;2022-12-18T03:35:19;99891.13;;;7.94;100.00
9672;BME280;4874;43.568;27.824;2022-12-18T03:37:47;99907.09;;;7.93;100.00
9672;BME280;4874;43.568;27.824;2022-12-18T03:40:14;99916.19;;;7.89;100.00
9672;BME280;4874;43.568;27.824;2022-12-18T03:43:02;99918.44;;;7.95;100.00
9672;BME280;4874;43.568;27.824;2022-12-18T03:45:34;99937.00;;;7.81;100.00
9672;BME280;4874;43.568;27.824;2022-12-18T03:55:39;99952.00;;;7.68;100.00
9672;BME280;4874;43.568;27.824;2022-12-18T03:58:07;99947.00;;;7.51;100.00
9672;BME280;4874;43.568;27.824;2022-12-18T04:00:34;99941.72;;;7.51;100.00
9672;BME280;4874;43.568;27.824;2022-12-18T04:03:01;99937.56;;;7.20;100.00
9672;BME280;4874;43.568;27.824;2022-12-18T04:05:28;99938.38;;;7.35;100.00
9672;BME280;4874;43.568;27.824;2022-12-18T04:07:56;99945.53;;;7.33;100.00
9672;BME280;4874;43.568;27.824;2022-12-18T04:10:23;99939.31;;;7.07;100.00
9672;BME280;4874;43.568;27.824;2022-12-18T04:12:50;99941.81;;;7.23;100.00
9672;BME280;4874;43.568;27.824;2022-12-18T04:15:16;99948.88;;;7.22;100.00
9672;BME280;4874;43.568;27.824;2022-12-18T04:17:46;99952.84;;;7.15;100.00
9672;BME280;4874;43.568;27.824;2022-12-18T04:20:13;99948.22;;;7.18;100.00
9672;BME280;4874;43.568;27.824;2022-12-18T04:22:40;99946.22;;;7.09;100.00
9672;BME280;4874;43.568;27.824;2022-12-18T04:25:06;99964.16;;;6.90;100.00
9672;BME280;4874;43.568;27.824;2022-12-18T04:27:33;99970.13;;;7.06;100.00
9672;BME280;4874;43.568;27.824;2022-12-18T04:30:00;99979.50;;;6.98;100.00
9672;BME280;4874;43.568;27.824;2022-12-18T04:32:26;99985.06;;;6.93;100.00
9672;BME280;4874;43.568;27.824;2022-12-18T04:34:53;99981.59;;;6.79;100.00
9672;BME280;4874;43.568;27.824;2022-12-18T04:37:19;99991.03;;;6.83;100.00
9672;BME280;4874;43.568;27.824;2022-12-18T04:39:46;99999.19;;;6.92;100.00
9672;BME280;4874;43.568;27.824;2022-12-18T04:42:12;100011.09;;;6.85;100.00
9672;BME280;4874;43.568;27.824;2022-12-18T04:44:39;100017.66;;;6.92;100.00
9672;BME280;4874;43.568;27.824;2022-12-18T04:47:05;100015.16;;;6.77;100.00
9672;BME280;4874;43.568;27.824;2022-12-18T04:49:32;100025.97;;;6.58;100.00
9672;BME280;4874;43.568;27.824;2022-12-18T04:51:59;100029.84;;;6.53;100.00
9672;BME280;4874;43.568;27.824;2022-12-18T04:54:25;100037.28;;;6.60;100.00
9672;BME280;4874;43.568;27.824;2022-12-18T04:56:52;100040.47;;;6.37;100.00
9672;BME280;4874;43.568;27.824;2022-12-18T04:59:19;100039.09;;;6.46;100.00
9672;BME280;4874;43.568;27.824;2022-12-18T05:01:45;100033.78;;;6.32;100.00
9672;BME280;4874;43.568;27.824;2022-12-18T05:04:12;100037.72;;;6.25;100.00
9672;BME280;4874;43.568;27.824;2022-12-18T05:06:38;100026.88;;;6.29;100.00
9672;BME280;4874;43.568;27.824;2022-12-18T05:09:05;100035.22;;;6.37;100.00
9672;BME280;4874;43.568;27.824;2022-12-18T05:11:31;100032.09;;;6.31;100.00
9672;BME280;4874;43.568;27.824;2022-12-18T05:13:58;100044.25;;;6.47;100.00
9672;BME280;4874;43.568;27.824;2022-12-18T05:16:25;100045.34;;;6.15;100.00
9672;BME280;4874;43.568;27.824;2022-12-18T05:18:51;100052.44;;;6.29;100.00
9672;BME280;4874;43.568;27.824;2022-12-18T05:21:18;100055.94;;;6.14;100.00
9672;BME280;4874;43.568;27.824;2022-12-18T05:23:44;100058.28;;;6.04;100.00
9672;BME280;4874;43.568;27.824;2022-12-18T05:26:14;100054.69;;;6.05;100.00
9672;BME280;4874;43.568;27.824;2022-12-18T05:28:41;100057.03;;;5.95;100.00
9672;BME280;4874;43.568;27.824;2022-12-18T05:31:08;100066.72;;;5.95;100.00
9672;BME280;4874;43.568;27.824;2022-12-18T05:33:35;100075.16;;;6.16;100.00
9672;BME280;4874;43.568;27.824;2022-12-18T05:36:03;100069.22;;;6.12;100.00
9672;BME280;4874;43.568;27.824;2022-12-18T05:38:31;100067.81;;;6.07;100.00
9672;BME280;4874;43.568;27.824;2022-12-18T05:40:58;100073.94;;;5.91;100.00
9672;BME280;4874;43.568;27.824;2022-12-18T05:43:25;100081.69;;;5.79;100.00
9672;BME280;4874;43.568;27.824;2022-12-18T05:45:51;100090.31;;;5.82;100.00
9672;BME280;4874;43.568;27.824;2022-12-18T05:48:19;100087.78;;;5.64;100.00
9672;BME280;4874;43.568;27.824;2022-12-18T05:50:47;100082.38;;;5.67;100.00
9672;BME280;4874;43.568;27.824;2022-12-18T05:53:14;100097.94;;;5.87;100.00
9672;BME280;4874;43.568;27.824;2022-12-18T05:55:42;100112.06;;;5.86;100.00
9672;BME280;4874;43.568;27.824;2022-12-18T05:58:10;100122.97;;;5.78;100.00
9672;BME280;4874;43.568;27.824;2022-12-18T06:00:37;100128.28;;;5.94;100.00
9672;BME280;4874;43.568;27.824;2022-12-18T06:03:08;100143.59;;;5.87;100.00
9672;BME280;4874;43.568;27.824;2022-12-18T06:05:38;100141.25;;;5.66;100.00
9672;BME280;4874;43.568;27.824;2022-12-18T06:08:05;100145.84;;;5.62;100.00
9672;BME280;4874;43.568;27.824;2022-12-18T06:10:32;100151.78;;;5.66;100.00
9672;BME280;4874;43.568;27.824;2022-12-18T06:12:59;100153.41;;;5.53;100.00
9672;BME280;4874;43.568;27.824;2022-12-18T06:15:25;100163.63;;;5.90;100.00
9672;BME280;4874;43.568;27.824;2022-12-18T06:17:52;100167.97;;;5.75;100.00
9672;BME280;4874;43.568;27.824;2022-12-18T06:20:18;100177.72;;;5.73;100.00
9672;BME280;4874;43.568;27.824;2022-12-18T06:22:45;100189.13;;;5.74;100.00
9672;BME280;4874;43.568;27.824;2022-12-18T06:25:11;100204.13;;;5.56;100.00
9672;BME280;4874;43.568;27.824;2022-12-18T06:27:38;100202.19;;;5.60;100.00
9672;BME280;4874;43.568;27.824;2022-12-18T06:30:05;100207.25;;;5.47;100.00
9672;BME280;4874;43.568;27.824;2022-12-18T06:32:32;100209.38;;;5.41;100.00
9672;BME280;4874;43.568;27.824;2022-12-18T06:34:59;100208.97;;;5.48;100.00
9672;BME280;4874;43.568;27.824;2022-12-18T06:37:25;100207.03;;;5.52;100.00
9672;BME280;4874;43.568;27.824;2022-12-18T06:39:55;100206.34;;;5.48;100.00
9672;BME280;4874;43.568;27.824;2022-12-18T06:42:23;100213.41;;;5.63;100.00
9672;BME280;4874;43.568;27.824;2022-12-18T06:44:49;100221.63;;;5.57;100.00
9672;BME280;4874;43.568;27.824;2022-12-18T06:47:16;100218.31;;;5.54;100.00
9672;BME280;4874;43.568;27.824;2022-12-18T06:49:43;100209.56;;;5.53;100.00
9672;BME280;4874;43.568;27.824;2022-12-18T06:52:09;100217.31;;;5.56;100.00
9672;BME280;4874;43.568;27.824;2022-12-18T06:54:36;100221.78;;;5.54;100.00
9672;BME280;4874;43.568;27.824;2022-12-18T06:57:03;100221.59;;;5.42;100.00
9672;BME280;4874;43.568;27.824;2022-12-18T06:59:29;100224.13;;;5.60;100.00
9672;BME280;4874;43.568;27.824;2022-12-18T07:01:56;100217.16;;;5.75;100.00
9672;BME280;4874;43.568;27.824;2022-12-18T07:04:26;100228.19;;;5.66;100.00
9672;BME280;4874;43.568;27.824;2022-12-18T07:06:53;100239.41;;;5.69;100.00
9672;BME280;4874;43.568;27.824;2022-12-18T07:09:20;100246.00;;;5.61;100.00
9672;BME280;4874;43.568;27.824;2022-12-18T07:11:46;100255.72;;;5.76;100.00
9672;BME280;4874;43.568;27.824;2022-12-18T07:14:13;100248.03;;;5.88;100.00
9672;BME280;4874;43.568;27.824;2022-12-18T07:16:39;100262.09;;;5.89;100.00
9672;BME280;4874;43.568;27.824;2022-12-18T07:19:07;100262.50;;;5.64;100.00
9672;BME280;4874;43.568;27.824;2022-12-18T07:21:33;100272.34;;;5.61;100.00
9672;BME280;4874;43.568;27.824;2022-12-18T07:24:00;100308.56;;;5.90;100.00
9672;BME280;4874;43.568;27.824;2022-12-18T07:26:26;100289.88;;;5.62;100.00
9672;BME280;4874;43.568;27.824;2022-12-18T07:28:56;100298.50;;;5.48;100.00
9672;BME280;4874;43.568;27.824;2022-12-18T07:31:24;100306.56;;;5.78;100.00
9672;BME280;4874;43.568;27.824;2022-12-18T07:33:51;100313.16;;;5.69;100.00
9672;BME280;4874;43.568;27.824;2022-12-18T07:36:18;100318.91;;;5.77;100.00
9672;BME280;4874;43.568;27.824;2022-12-18T07:38:46;100320.09;;;5.55;100.00
9672;BME280;4874;43.568;27.824;2022-12-18T07:41:13;100328.19;;;5.67;100.00
9672;BME280;4874;43.568;27.824;2022-12-18T07:43:39;100332.72;;;5.65;100.00
9672;BME280;4874;43.568;27.824;2022-12-18T07:46:07;100330.25;;;5.95;100.00
9672;BME280;4874;43.568;27.824;2022-12-18T07:48:34;100342.69;;;6.09;100.00
9672;BME280;4874;43.568;27.824;2022-12-18T07:51:01;100337.94;;;6.00;100.00
9672;BME280;4874;43.568;27.824;2022-12-18T07:53:29;100337.25;;;5.96;100.00
9672;BME280;4874;43.568;27.824;2022-12-18T07:55:56;100334.88;;;6.07;100.00
9672;BME280;4874;43.568;27.824;2022-12-18T07:58:43;100344.72;;;6.04;100.00
9672;BME280;4874;43.568;27.824;2022-12-18T08:01:13;100349.91;;;6.05;100.00
9672;BME280;4874;43.568;27.824;2022-12-18T08:03:40;100356.34;;;5.84;100.00
9672;BME280;4874;43.568;27.824;2022-12-18T08:06:08;100356.78;;;5.75;100.00
9672;BME280;4874;43.568;27.824;2022-12-18T08:08:35;100362.16;;;5.56;100.00
9672;BME280;4874;43.568;27.824;2022-12-18T08:11:02;100353.28;;;5.74;100.00
9672;BME280;4874;43.568;27.824;2022-12-18T08:13:28;100354.53;;;5.84;100.00
9672;BME280;4874;43.568;27.824;2022-12-18T08:15:59;100355.63;;;5.80;100.00
9672;BME280;4874;43.568;27.824;2022-12-18T08:18:25;100360.47;;;6.05;100.00
9672;BME280;4874;43.568;27.824;2022-12-18T08:20:52;100365.16;;;5.83;100.00
9672;BME280;4874;43.568;27.824;2022-12-18T08:23:19;100370.31;;;5.86;100.00
9672;BME280;4874;43.568;27.824;2022-12-18T08:25:45;100376.69;;;5.97;100.00
9672;BME280;4874;43.568;27.824;2022-12-18T08:28:12;100375.06;;;5.78;100.00
9672;BME280;4874;43.568;27.824;2022-12-18T08:30:39;100380.81;;;6.03;100.00
9672;BME280;4874;43.568;27.824;2022-12-18T08:33:06;100369.66;;;5.64;100.00
9672;BME280;4874;43.568;27.824;2022-12-18T08:35:36;100381.66;;;5.86;100.00
9672;BME280;4874;43.568;27.824;2022-12-18T08:38:07;100374.25;;;5.77;100.00
9672;BME280;4874;43.568;27.824;2022-12-18T08:40:34;100369.22;;;6.06;100.00
9672;BME280;4874;43.568;27.824;2022-12-18T08:43:00;100363.41;;;6.32;100.00
9672;BME280;4874;43.568;27.824;2022-12-18T08:45:45;100374.66;;;6.03;100.00
9672;BME280;4874;43.568;27.824;2022-12-18T08:48:12;100372.44;;;5.95;100.00
9672;BME280;4874;43.568;27.824;2022-12-18T08:50:43;100377.44;;;6.17;100.00
9672;BME280;4874;43.568;27.824;2022-12-18T08:53:09;100382.19;;;5.76;100.00
9672;BME280;4874;43.568;27.824;2022-12-18T08:55:36;100370.56;;;5.97;100.00
9672;BME280;4874;43.568;27.824;2022-12-18T08:58:02;100366.19;;;6.13;100.00
9672;BME280;4874;43.568;27.824;2022-12-18T09:00:29;100365.06;;;6.17;100.00
9672;BME280;4874;43.568;27.824;2022-12-18T09:02:58;100369.44;;;6.18;100.00
9672;BME280;4874;43.568;27.824;2022-12-18T09:05:25;100368.47;;;6.19;100.00
9672;BME280;4874;43.568;27.824;2022-12-18T09:07:51;100370.47;;;6.31;100.00
9672;BME280;4874;43.568;27.824;2022-12-18T09:10:18;100373.25;;;6.13;100.00
9672;BME280;4874;43.568;27.824;2022-12-18T09:12:44;100358.69;;;6.06;100.00
9672;BME280;4874;43.568;27.824;2022-12-18T09:15:11;100369.56;;;9.19;100.00
9672;BME280;4874;43.568;27.824;2022-12-18T09:17:38;100365.06;;;9.46;100.00
9672;BME280;4874;43.568;27.824;2022-12-18T09:20:04;100361.72;;;7.52;100.00
9672;BME280;4874;43.568;27.824;2022-12-18T09:22:31;100376.94;;;6.88;100.00
9672;BME280;4874;43.568;27.824;2022-12-18T09:24:58;100373.63;;;6.53;100.00
9672;BME280;4874;43.568;27.824;2022-12-18T09:27:24;100373.28;;;9.69;100.00
9672;BME280;4874;43.568;27.824;2022-12-18T09:29:51;100359.53;;;7.59;100.00
9672;BME280;4874;43.568;27.824;2022-12-18T09:32:17;100361.38;;;6.83;100.00
9672;BME280;4874;43.568;27.824;2022-12-18T09:34:47;100370.47;;;6.47;100.00
9672;BME280;4874;43.568;27.824;2022-12-18T09:37:14;100375.50;;;6.51;100.00
9672;BME280;4874;43.568;27.824;2022-12-18T09:39:40;100367.59;;;6.51;100.00
9672;BME280;4874;43.568;27.824;2022-12-18T09:42:09;100369.97;;;6.71;100.00
9672;BME280;4874;43.568;27.824;2022-12-18T09:44:43;100384.22;;;6.21;100.00
9672;BME280;4874;43.568;27.824;2022-12-18T09:49:42;100384.38;;;6.18;100.00
9672;BME280;4874;43.568;27.824;2022-12-18T09:52:11;100386.88;;;6.36;100.00
9672;BME280;4874;43.568;27.824;2022-12-18T09:54:39;100388.13;;;6.29;100.00
9672;BME280;4874;43.568;27.824;2022-12-18T09:57:06;100398.56;;;6.32;100.00
9672;BME280;4874;43.568;27.824;2022-12-18T09:59:37;100393.22;;;6.49;100.00
9672;BME280;4874;43.568;27.824;2022-12-18T10:02:16;100388.72;;;6.51;100.00
9672;BME280;4874;43.568;27.824;2022-12-18T10:04:43;100405.81;;;6.12;100.00
9672;BME280;4874;43.568;27.824;2022-12-18T10:09:43;100391.38;;;6.34;100.00
9672;BME280;4874;43.568;27.824;2022-12-18T10:12:21;100406.22;;;6.52;100.00
9672;BME280;4874;43.568;27.824;2022-12-18T10:19:56;100406.22;;;6.52;100.00
9672;BME280;4874;43.568;27.824;2022-12-18T10:27:26;100401.81;;;6.53;100.00
9672;BME280;4874;43.568;27.824;2022-12-18T10:29:53;100402.38;;;6.42;100.00
9672;BME280;4874;43.568;27.824;2022-12-18T10:32:24;100401.63;;;6.40;100.00
9672;BME280;4874;43.568;27.824;2022-12-18T10:34:52;100394.69;;;6.38;100.00
9672;BME280;4874;43.568;27.824;2022-12-18T10:37:26;100404.56;;;6.19;100.00
9672;BME280;4874;43.568;27.824;2022-12-18T10:40:12;100399.97;;;6.22;100.00
9672;BME280;4874;43.568;27.824;2022-12-18T10:42:45;100402.06;;;6.16;100.00
9672;BME280;4874;43.568;27.824;2022-12-18T10:45:15;100402.56;;;6.39;100.00
9672;BME280;4874;43.568;27.824;2022-12-18T10:47:44;100407.31;;;6.48;100.00
9672;BME280;4874;43.568;27.824;2022-12-18T10:50:20;100409.06;;;6.65;100.00
9672;BME280;4874;43.568;27.824;2022-12-18T10:53:01;100403.19;;;6.60;100.00
9672;BME280;4874;43.568;27.824;2022-12-18T10:55:36;100399.78;;;6.58;100.00
9672;BME280;4874;43.568;27.824;2022-12-18T11:03:37;100412.38;;;6.68;100.00
9672;BME280;4874;43.568;27.824;2022-12-18T11:06:08;100403.25;;;6.43;100.00
9672;BME280;4874;43.568;27.824;2022-12-18T11:08:35;100412.88;;;6.59;100.00
9672;BME280;4874;43.568;27.824;2022-12-18T11:11:03;100415.69;;;6.56;100.00
9672;BME280;4874;43.568;27.824;2022-12-18T11:13:30;100410.91;;;6.47;100.00
9672;BME280;4874;43.568;27.824;2022-12-18T11:15:58;100417.78;;;6.50;100.00
9672;BME280;4874;43.568;27.824;2022-12-18T11:18:29;100411.16;;;6.43;100.00
9672;BME280;4874;43.568;27.824;2022-12-18T11:23:31;100425.09;;;6.45;100.00
9672;BME280;4874;43.568;27.824;2022-12-18T11:25:59;100419.31;;;6.38;100.00
9672;BME280;4874;43.568;27.824;2022-12-18T11:28:46;100431.50;;;6.56;100.00
9672;BME280;4874;43.568;27.824;2022-12-18T11:36:39;100425.47;;;6.54;100.00
9672;BME280;4874;43.568;27.824;2022-12-18T11:39:31;100437.13;;;6.66;100.00
9672;BME280;4874;43.568;27.824;2022-12-18T11:42:17;100437.03;;;6.67;100.00
9672;BME280;4874;43.568;27.824;2022-12-18T11:44:50;100441.59;;;6.48;100.00
9672;BME280;4874;43.568;27.824;2022-12-18T11:50:03;100435.16;;;6.69;100.00
9672;BME280;4874;43.568;27.824;2022-12-18T11:52:36;100441.44;;;6.67;100.00
9672;BME280;4874;43.568;27.824;2022-12-18T11:55:07;100383.03;;;6.26;100.00
9672;BME280;4874;43.568;27.824;2022-12-18T11:57:42;100446.41;;;6.57;100.00
9672;BME280;4874;43.568;27.824;2022-12-18T12:00:12;100442.81;;;6.43;100.00
9672;BME280;4874;43.568;27.824;2022-12-18T12:02:45;100443.19;;;6.68;100.00
9672;BME280;4874;43.568;27.824;2022-12-18T12:05:20;100441.28;;;6.54;100.00
9672;BME280;4874;43.568;27.824;2022-12-18T12:21:02;100464.88;;;6.57;100.00
9672;BME280;4874;43.568;27.824;2022-12-18T12:23:33;100459.19;;;6.65;100.00
9672;BME280;4874;43.568;27.824;2022-12-18T12:26:06;100464.38;;;6.66;100.00
9672;BME280;4874;43.568;27.824;2022-12-18T12:31:03;100465.31;;;6.81;100.00
9672;BME280;4874;43.568;27.824;2022-12-18T12:41:02;100455.75;;;6.47;100.00
9672;BME280;4874;43.568;27.824;2022-12-18T12:43:43;100457.22;;;6.53;100.00
9672;BME280;4874;43.568;27.824;2022-12-18T12:46:31;100462.63;;;6.50;100.00
9672;BME280;4874;43.568;27.824;2022-12-18T12:49:00;100473.78;;;6.55;100.00
9672;BME280;4874;43.568;27.824;2022-12-18T12:51:34;100482.09;;;6.80;100.00
9672;BME280;4874;43.568;27.824;2022-12-18T12:54:02;100492.06;;;6.75;100.00
9672;BME280;4874;43.568;27.824;2022-12-18T12:56:36;100497.22;;;6.61;100.00
9672;BME280;4874;43.568;27.824;2022-12-18T12:59:14;100485.22;;;6.71;100.00
9672;BME280;4874;43.568;27.824;2022-12-18T13:01:53;100488.31;;;6.46;100.00
9672;BME280;4874;43.568;27.824;2022-12-18T13:04:29;100499.38;;;6.70;100.00
9672;BME280;4874;43.568;27.824;2022-12-18T13:07:10;100502.84;;;6.70;100.00
9672;BME280;4874;43.568;27.824;2022-12-18T13:12:26;100509.88;;;6.54;100.00
9672;BME280;4874;43.568;27.824;2022-12-18T13:15:12;100509.38;;;6.48;100.00
9672;BME280;4874;43.568;27.824;2022-12-18T13:17:39;100517.97;;;6.51;100.00
9672;BME280;4874;43.568;27.824;2022-12-18T13:22:36;100509.16;;;6.35;100.00
9672;BME280;4874;43.568;27.824;2022-12-18T13:25:23;100512.09;;;6.62;100.00
9672;BME280;4874;43.568;27.824;2022-12-18T13:35:41;100534.75;;;6.33;100.00
9672;BME280;4874;43.568;27.824;2022-12-18T13:40:53;100544.41;;;6.50;100.00
9672;BME280;4874;43.568;27.824;2022-12-18T13:48:30;100537.00;;;6.41;100.00
9672;BME280;4874;43.568;27.824;2022-12-18T13:51:02;100545.19;;;6.52;100.00
9672;BME280;4874;43.568;27.824;2022-12-18T13:53:30;100543.44;;;6.35;100.00
9672;BME280;4874;43.568;27.824;2022-12-18T13:55:59;100544.50;;;6.31;100.00
9672;BME280;4874;43.568;27.824;2022-12-18T13:58:26;100547.53;;;6.41;100.00
9672;BME280;4874;43.568;27.824;2022-12-18T14:00:52;100551.09;;;6.40;100.00
9672;BME280;4874;43.568;27.824;2022-12-18T14:03:23;100559.25;;;6.35;100.00
9672;BME280;4874;43.568;27.824;2022-12-18T14:05:53;100560.47;;;6.45;100.00
9672;BME280;4874;43.568;27.824;2022-12-18T14:08:21;100561.00;;;6.52;100.00
9672;BME280;4874;43.568;27.824;2022-12-18T14:10:48;100560.94;;;6.36;100.00
9672;BME280;4874;43.568;27.824;2022-12-18T14:13:29;100562.88;;;6.33;100.00
9672;BME280;4874;43.568;27.824;2022-12-18T14:15:56;100583.47;;;6.26;100.00
9672;BME280;4874;43.568;27.824;2022-12-18T14:18:25;100588.41;;;6.49;100.00
9672;BME280;4874;43.568;27.824;2022-12-18T14:20:54;100591.00;;;6.17;100.00
9672;BME280;4874;43.568;27.824;2022-12-18T14:25:54;100590.13;;;6.16;100.00
9672;BME280;4874;43.568;27.824;2022-12-18T14:28:22;100600.41;;;6.04;100.00
9672;BME280;4874;43.568;27.824;2022-12-18T14:30:49;100601.38;;;6.03;100.00
9672;BME280;4874;43.568;27.824;2022-12-18T14:33:22;100619.44;;;5.93;100.00
9672;BME280;4874;43.568;27.824;2022-12-18T14:35:58;100619.81;;;6.03;100.00
9672;BME280;4874;43.568;27.824;2022-12-18T14:43:26;100616.78;;;5.93;100.00
9672;BME280;4874;43.568;27.824;2022-12-18T14:45:53;100620.50;;;5.89;100.00
9672;BME280;4874;43.568;27.824;2022-12-18T14:48:41;100628.16;;;5.93;100.00
9672;BME280;4874;43.568;27.824;2022-12-18T14:51:15;100632.19;;;5.83;100.00
9672;BME280;4874;43.568;27.824;2022-12-18T14:53:44;100644.53;;;6.00;100.00
9672;BME280;4874;43.568;27.824;2022-12-18T14:56:22;100634.25;;;6.13;100.00
9672;BME280;4874;43.568;27.824;2022-12-18T14:58:51;100639.16;;;6.20;100.00
9672;BME280;4874;43.568;27.824;2022-12-18T15:01:23;100627.03;;;6.33;100.00
9672;BME280;4874;43.568;27.824;2022-12-18T15:03:51;100634.41;;;8.35;100.00
9672;BME280;4874;43.568;27.824;2022-12-18T15:06:39;100639.00;;;6.57;100.00
9672;BME280;4874;43.568;27.824;2022-12-18T15:09:21;100643.81;;;6.15;100.00
9672;BME280;4874;43.568;27.824;2022-12-18T15:11:49;100650.66;;;5.82;100.00
9672;BME280;4874;43.568;27.824;2022-12-18T15:14:33;100658.44;;;5.66;100.00